sensor_id;sensor_type;location;lat;lon;timestamp;temperature;humidity
64961;SHT31;51487;52.266;10.542;2022-10-30T00:00:47;15.51;91.58
64961;SHT31;51487;52.266;10.542;2022-10-30T00:03:15;15.51;90.95
64961;SHT31;51487;52.266;10.542;2022-10-30T00:05:43;15.49;90.59
64961;SHT31;51487;52.266;10.542;2022-10-30T00:08:12;15.51;90.31
64961;SHT31;51487;52.266;10.542;2022-10-30T00:10:39;15.51;90.21
64961;SHT31;51487;52.266;10.542;2022-10-30T00:13:05;15.53;90.03
64961;SHT31;51487;52.266;10.542;2022-10-30T00:15:31;15.55;89.83
64961;SHT31;51487;52.266;10.542;2022-10-30T00:17:57;15.60;89.58
64961;SHT31;51487;52.266;10.542;2022-10-30T00:20:22;15.61;89.42
64961;SHT31;51487;52.266;10.542;2022-10-30T00:22:48;15.65;89.37
64961;SHT31;51487;52.266;10.542;2022-10-30T00:25:13;15.65;88.85
64961;SHT31;51487;52.266;10.542;2022-10-30T00:27:39;15.67;88.77
64961;SHT31;51487;52.266;10.542;2022-10-30T00:30:05;15.68;88.77
64961;SHT31;51487;52.266;10.542;2022-10-30T00:32:31;15.70;88.62
64961;SHT31;51487;52.266;10.542;2022-10-30T00:34:56;15.70;88.47
64961;SHT31;51487;52.266;10.542;2022-10-30T00:37:22;15.71;88.44
64961;SHT31;51487;52.266;10.542;2022-10-30T00:39:47;15.72;88.71
64961;SHT31;51487;52.266;10.542;2022-10-30T00:42:14;15.67;88.65
64961;SHT31;51487;52.266;10.542;2022-10-30T00:47:22;15.64;88.89
64961;SHT31;51487;52.266;10.542;2022-10-30T00:50:32;15.64;89.19
64961;SHT31;51487;52.266;10.542;2022-10-30T00:53:06;15.63;89.43
64961;SHT31;51487;52.266;10.542;2022-10-30T00:58:17;15.63;89.15
64961;SHT31;51487;52.266;10.542;2022-10-30T01:00:52;15.63;89.01
64961;SHT31;51487;52.266;10.542;2022-10-30T01:03:20;15.64;89.33
64961;SHT31;51487;52.266;10.542;2022-10-30T01:05:54;15.63;88.96
64961;SHT31;51487;52.266;10.542;2022-10-30T01:08:21;15.64;88.81
64961;SHT31;51487;52.266;10.542;2022-10-30T01:10:47;15.60;88.85
64961;SHT31;51487;52.266;10.542;2022-10-30T01:13:14;15.58;88.62
64961;SHT31;51487;52.266;10.542;2022-10-30T01:21:21;15.65;88.65
64961;SHT31;51487;52.266;10.542;2022-10-30T01:24:50;15.60;88.76
64961;SHT31;51487;52.266;10.542;2022-10-30T01:36:29;15.57;88.22
64961;SHT31;51487;52.266;10.542;2022-10-30T01:39:06;15.61;88.79
64961;SHT31;51487;52.266;10.542;2022-10-30T01:41:34;15.55;88.38
64961;SHT31;51487;52.266;10.542;2022-10-30T01:44:29;15.53;88.34
64961;SHT31;51487;52.266;10.542;2022-10-30T01:49:57;15.49;89.34
64961;SHT31;51487;52.266;10.542;2022-10-30T01:52:48;15.51;89.64
64961;SHT31;51487;52.266;10.542;2022-10-30T02:00:37;15.30;88.96
64961;SHT31;51487;52.266;10.542;2022-10-30T02:03:04;15.29;88.85
64961;SHT31;51487;52.266;10.542;2022-10-30T02:05:46;15.24;88.82
64961;SHT31;51487;52.266;10.542;2022-10-30T02:08:12;15.26;89.56
64961;SHT31;51487;52.266;10.542;2022-10-30T02:10:40;15.22;89.52
64961;SHT31;51487;52.266;10.542;2022-10-30T02:13:07;15.16;89.35
64961;SHT31;51487;52.266;10.542;2022-10-30T02:15:33;15.07;89.51
64961;SHT31;51487;52.266;10.542;2022-10-30T02:17:59;15.02;89.77
64961;SHT31;51487;52.266;10.542;2022-10-30T02:20:25;14.99;89.77
64961;SHT31;51487;52.266;10.542;2022-10-30T02:22:51;14.95;89.95
64961;SHT31;51487;52.266;10.542;2022-10-30T02:25:17;14.95;90.10
64961;SHT31;51487;52.266;10.542;2022-10-30T02:27:43;14.86;90.38
64961;SHT31;51487;52.266;10.542;2022-10-30T02:30:10;14.81;90.96
64961;SHT31;51487;52.266;10.542;2022-10-30T02:32:36;14.76;90.68
64961;SHT31;51487;52.266;10.542;2022-10-30T02:35:02;14.74;90.67
64961;SHT31;51487;52.266;10.542;2022-10-30T02:37:28;14.69;90.73
64961;SHT31;51487;52.266;10.542;2022-10-30T02:39:55;14.64;90.89
64961;SHT31;51487;52.266;10.542;2022-10-30T02:42:20;14.55;91.00
64961;SHT31;51487;52.266;10.542;2022-10-30T02:44:47;14.55;91.40
64961;SHT31;51487;52.266;10.542;2022-10-30T02:47:13;14.49;91.45
64961;SHT31;51487;52.266;10.542;2022-10-30T02:49:38;14.42;91.56
64961;SHT31;51487;52.266;10.542;2022-10-30T02:52:06;14.42;91.40
64961;SHT31;51487;52.266;10.542;2022-10-30T02:54:33;14.47;91.79
64961;SHT31;51487;52.266;10.542;2022-10-30T02:57:00;14.41;91.67
64961;SHT31;51487;52.266;10.542;2022-10-30T02:59:25;14.38;91.95
64961;SHT31;51487;52.266;10.542;2022-10-30T03:01:51;14.35;92.42
64961;SHT31;51487;52.266;10.542;2022-10-30T03:04:17;14.31;92.41
64961;SHT31;51487;52.266;10.542;2022-10-30T03:06:42;14.35;92.18
64961;SHT31;51487;52.266;10.542;2022-10-30T03:09:08;14.33;92.33
64961;SHT31;51487;52.266;10.542;2022-10-30T03:11:33;14.30;92.61
64961;SHT31;51487;52.266;10.542;2022-10-30T03:13:59;14.23;92.05
64961;SHT31;51487;52.266;10.542;2022-10-30T03:16:26;14.24;92.55
64961;SHT31;51487;52.266;10.542;2022-10-30T03:18:56;14.17;92.81
64961;SHT31;51487;52.266;10.542;2022-10-30T03:21:24;14.14;92.97
64961;SHT31;51487;52.266;10.542;2022-10-30T03:23:51;14.13;92.80
64961;SHT31;51487;52.266;10.542;2022-10-30T03:26:18;14.03;92.36
64961;SHT31;51487;52.266;10.542;2022-10-30T03:28:44;13.99;92.38
64961;SHT31;51487;52.266;10.542;2022-10-30T03:31:16;14.00;92.92
64961;SHT31;51487;52.266;10.542;2022-10-30T03:33:43;13.96;92.23
64961;SHT31;51487;52.266;10.542;2022-10-30T03:36:11;13.90;92.78
64961;SHT31;51487;52.266;10.542;2022-10-30T03:38:38;13.89;92.91
64961;SHT31;51487;52.266;10.542;2022-10-30T03:41:05;13.93;92.93
64961;SHT31;51487;52.266;10.542;2022-10-30T03:43:30;13.90;92.68
64961;SHT31;51487;52.266;10.542;2022-10-30T03:45:56;13.90;92.95
64961;SHT31;51487;52.266;10.542;2022-10-30T03:48:25;13.90;92.95
64961;SHT31;51487;52.266;10.542;2022-10-30T03:50:55;13.91;92.79
64961;SHT31;51487;52.266;10.542;2022-10-30T03:53:22;13.95;92.70
64961;SHT31;51487;52.266;10.542;2022-10-30T03:55:57;13.95;92.66
64961;SHT31;51487;52.266;10.542;2022-10-30T03:58:23;13.99;92.99
64961;SHT31;51487;52.266;10.542;2022-10-30T04:00:49;14.02;92.89
64961;SHT31;51487;52.266;10.542;2022-10-30T04:03:14;13.96;92.81
64961;SHT31;51487;52.266;10.542;2022-10-30T04:05:40;14.02;92.85
64961;SHT31;51487;52.266;10.542;2022-10-30T04:08:10;14.00;92.43
64961;SHT31;51487;52.266;10.542;2022-10-30T04:10:40;14.06;92.41
64961;SHT31;51487;52.266;10.542;2022-10-30T04:13:06;14.17;92.41
64961;SHT31;51487;52.266;10.542;2022-10-30T04:15:33;14.13;92.55
64961;SHT31;51487;52.266;10.542;2022-10-30T04:17:59;14.12;92.19
64961;SHT31;51487;52.266;10.542;2022-10-30T04:20:25;14.16;92.11
64961;SHT31;51487;52.266;10.542;2022-10-30T04:23:00;14.23;92.29
64961;SHT31;51487;52.266;10.542;2022-10-30T04:25:27;14.23;91.88
64961;SHT31;51487;52.266;10.542;2022-10-30T04:27:54;14.27;91.71
64961;SHT31;51487;52.266;10.542;2022-10-30T04:30:21;14.33;90.98
64961;SHT31;51487;52.266;10.542;2022-10-30T04:32:55;14.31;90.56
64961;SHT31;51487;52.266;10.542;2022-10-30T04:35:24;14.35;89.22
64961;SHT31;51487;52.266;10.542;2022-10-30T04:37:56;14.40;88.89
64961;SHT31;51487;52.266;10.542;2022-10-30T04:40:25;14.48;88.19
64961;SHT31;51487;52.266;10.542;2022-10-30T04:42:51;14.55;87.69
64961;SHT31;51487;52.266;10.542;2022-10-30T04:45:16;14.58;87.60
64961;SHT31;51487;52.266;10.542;2022-10-30T04:47:43;14.58;87.22
64961;SHT31;51487;52.266;10.542;2022-10-30T04:50:09;14.63;86.99
64961;SHT31;51487;52.266;10.542;2022-10-30T04:52:35;14.60;86.94
64961;SHT31;51487;52.266;10.542;2022-10-30T04:55:01;14.57;86.81
64961;SHT31;51487;52.266;10.542;2022-10-30T04:57:27;14.61;86.74
64961;SHT31;51487;52.266;10.542;2022-10-30T04:59:52;14.63;87.10
64961;SHT31;51487;52.266;10.542;2022-10-30T05:02:18;14.60;86.56
64961;SHT31;51487;52.266;10.542;2022-10-30T05:04:44;14.58;86.53
64961;SHT31;51487;52.266;10.542;2022-10-30T05:07:12;14.49;86.53
64961;SHT31;51487;52.266;10.542;2022-10-30T05:09:38;14.49;86.56
64961;SHT31;51487;52.266;10.542;2022-10-30T05:12:03;14.48;87.60
64961;SHT31;51487;52.266;10.542;2022-10-30T05:14:31;14.41;87.39
64961;SHT31;51487;52.266;10.542;2022-10-30T05:16:57;14.33;87.16
64961;SHT31;51487;52.266;10.542;2022-10-30T05:19:22;14.34;88.06
64961;SHT31;51487;52.266;10.542;2022-10-30T05:21:48;14.37;87.65
64961;SHT31;51487;52.266;10.542;2022-10-30T05:24:13;14.40;88.12
64961;SHT31;51487;52.266;10.542;2022-10-30T05:26:39;14.30;87.60
64961;SHT31;51487;52.266;10.542;2022-10-30T05:29:04;14.27;87.49
64961;SHT31;51487;52.266;10.542;2022-10-30T05:31:30;14.27;87.40
64961;SHT31;51487;52.266;10.542;2022-10-30T05:33:55;14.27;87.41
64961;SHT31;51487;52.266;10.542;2022-10-30T05:36:21;14.28;87.51
64961;SHT31;51487;52.266;10.542;2022-10-30T05:38:47;14.24;87.84
64961;SHT31;51487;52.266;10.542;2022-10-30T05:41:12;14.24;87.22
64961;SHT31;51487;52.266;10.542;2022-10-30T05:43:38;14.30;86.95
64961;SHT31;51487;52.266;10.542;2022-10-30T05:46:04;14.33;87.09
64961;SHT31;51487;52.266;10.542;2022-10-30T05:48:29;14.30;87.10
64961;SHT31;51487;52.266;10.542;2022-10-30T05:50:55;14.31;87.85
64961;SHT31;51487;52.266;10.542;2022-10-30T05:53:22;14.28;87.34
64961;SHT31;51487;52.266;10.542;2022-10-30T05:55:48;14.24;87.37
64961;SHT31;51487;52.266;10.542;2022-10-30T05:58:14;14.27;87.19
64961;SHT31;51487;52.266;10.542;2022-10-30T06:00:39;14.28;86.71
64961;SHT31;51487;52.266;10.542;2022-10-30T06:03:09;14.40;86.46
64961;SHT31;51487;52.266;10.542;2022-10-30T06:05:37;14.38;86.31
64961;SHT31;51487;52.266;10.542;2022-10-30T06:08:04;14.49;86.38
64961;SHT31;51487;52.266;10.542;2022-10-30T06:10:30;14.49;86.32
64961;SHT31;51487;52.266;10.542;2022-10-30T06:12:59;14.48;86.32
64961;SHT31;51487;52.266;10.542;2022-10-30T06:15:25;14.47;86.48
64961;SHT31;51487;52.266;10.542;2022-10-30T06:17:51;14.49;86.24
64961;SHT31;51487;52.266;10.542;2022-10-30T06:20:20;14.55;85.93
64961;SHT31;51487;52.266;10.542;2022-10-30T06:22:56;14.69;85.42
64961;SHT31;51487;52.266;10.542;2022-10-30T06:25:22;14.68;85.81
64961;SHT31;51487;52.266;10.542;2022-10-30T06:27:49;14.68;85.47
64961;SHT31;51487;52.266;10.542;2022-10-30T06:30:15;14.71;85.37
64961;SHT31;51487;52.266;10.542;2022-10-30T06:32:41;14.72;85.46
64961;SHT31;51487;52.266;10.542;2022-10-30T06:35:07;14.75;85.44
64961;SHT31;51487;52.266;10.542;2022-10-30T06:37:33;14.78;85.29
64961;SHT31;51487;52.266;10.542;2022-10-30T06:39:58;14.74;85.84
64961;SHT31;51487;52.266;10.542;2022-10-30T06:42:25;14.72;85.78
64961;SHT31;51487;52.266;10.542;2022-10-30T06:44:50;14.74;86.20
64961;SHT31;51487;52.266;10.542;2022-10-30T06:47:16;14.71;86.35
64961;SHT31;51487;52.266;10.542;2022-10-30T06:49:41;14.72;86.52
64961;SHT31;51487;52.266;10.542;2022-10-30T06:52:07;14.68;86.41
64961;SHT31;51487;52.266;10.542;2022-10-30T06:54:32;14.68;87.22
64961;SHT31;51487;52.266;10.542;2022-10-30T06:56:58;14.65;86.67
64961;SHT31;51487;52.266;10.542;2022-10-30T06:59:24;14.64;87.28
64961;SHT31;51487;52.266;10.542;2022-10-30T07:01:50;14.72;87.06
64961;SHT31;51487;52.266;10.542;2022-10-30T07:04:16;14.67;87.20
64961;SHT31;51487;52.266;10.542;2022-10-30T07:06:41;14.68;87.37
64961;SHT31;51487;52.266;10.542;2022-10-30T07:09:07;14.68;87.12
64961;SHT31;51487;52.266;10.542;2022-10-30T07:11:32;14.65;88.08
64961;SHT31;51487;52.266;10.542;2022-10-30T07:13:58;14.61;88.12
64961;SHT31;51487;52.266;10.542;2022-10-30T07:16:23;14.61;88.29
64961;SHT31;51487;52.266;10.542;2022-10-30T07:18:49;14.60;88.63
64961;SHT31;51487;52.266;10.542;2022-10-30T07:21:15;14.54;88.71
64961;SHT31;51487;52.266;10.542;2022-10-30T07:23:41;14.60;89.04
64961;SHT31;51487;52.266;10.542;2022-10-30T07:26:06;14.58;88.95
64961;SHT31;51487;52.266;10.542;2022-10-30T07:28:32;14.60;89.30
64961;SHT31;51487;52.266;10.542;2022-10-30T07:30:58;14.60;88.94
64961;SHT31;51487;52.266;10.542;2022-10-30T07:33:24;14.58;89.16
64961;SHT31;51487;52.266;10.542;2022-10-30T07:35:50;14.61;89.70
64961;SHT31;51487;52.266;10.542;2022-10-30T07:38:15;14.57;89.78
64961;SHT31;51487;52.266;10.542;2022-10-30T07:40:42;14.60;89.61
64961;SHT31;51487;52.266;10.542;2022-10-30T07:43:09;14.57;89.27
64961;SHT31;51487;52.266;10.542;2022-10-30T07:45:38;14.60;89.47
64961;SHT31;51487;52.266;10.542;2022-10-30T07:48:04;14.60;89.39
64961;SHT31;51487;52.266;10.542;2022-10-30T07:50:31;14.64;89.73
64961;SHT31;51487;52.266;10.542;2022-10-30T07:52:56;14.68;89.41
64961;SHT31;51487;52.266;10.542;2022-10-30T07:55:22;14.65;89.14
64961;SHT31;51487;52.266;10.542;2022-10-30T07:57:48;14.71;89.01
64961;SHT31;51487;52.266;10.542;2022-10-30T08:00:15;14.78;88.97
64961;SHT31;51487;52.266;10.542;2022-10-30T08:02:41;14.82;88.28
64961;SHT31;51487;52.266;10.542;2022-10-30T08:05:08;14.98;87.69
64961;SHT31;51487;52.266;10.542;2022-10-30T08:07:36;15.09;86.96
64961;SHT31;51487;52.266;10.542;2022-10-30T08:10:03;15.24;86.39
64961;SHT31;51487;52.266;10.542;2022-10-30T08:12:32;15.32;86.25
64961;SHT31;51487;52.266;10.542;2022-10-30T08:14:58;15.46;85.85
64961;SHT31;51487;52.266;10.542;2022-10-30T08:17:24;15.54;85.66
64961;SHT31;51487;52.266;10.542;2022-10-30T08:19:50;15.65;84.97
64961;SHT31;51487;52.266;10.542;2022-10-30T08:22:15;15.68;84.88
64961;SHT31;51487;52.266;10.542;2022-10-30T08:24:41;15.72;85.03
64961;SHT31;51487;52.266;10.542;2022-10-30T08:27:06;15.85;84.60
64961;SHT31;51487;52.266;10.542;2022-10-30T08:29:32;15.92;84.35
64961;SHT31;51487;52.266;10.542;2022-10-30T08:31:59;15.95;84.51
64961;SHT31;51487;52.266;10.542;2022-10-30T08:34:25;16.06;83.84
64961;SHT31;51487;52.266;10.542;2022-10-30T08:36:56;16.11;83.74
64961;SHT31;51487;52.266;10.542;2022-10-30T08:39:21;16.15;83.73
64961;SHT31;51487;52.266;10.542;2022-10-30T08:41:47;16.22;83.69
64961;SHT31;51487;52.266;10.542;2022-10-30T08:44:13;16.28;83.47
64961;SHT31;51487;52.266;10.542;2022-10-30T08:46:38;16.40;83.16
64961;SHT31;51487;52.266;10.542;2022-10-30T08:49:04;16.50;83.12
64961;SHT31;51487;52.266;10.542;2022-10-30T08:51:34;16.57;82.58
64961;SHT31;51487;52.266;10.542;2022-10-30T08:54:00;16.63;82.58
64961;SHT31;51487;52.266;10.542;2022-10-30T08:56:26;16.59;82.53
64961;SHT31;51487;52.266;10.542;2022-10-30T08:58:52;16.64;82.78
64961;SHT31;51487;52.266;10.542;2022-10-30T09:01:17;16.64;82.53
64961;SHT31;51487;52.266;10.542;2022-10-30T09:03:44;16.71;81.73
64961;SHT31;51487;52.266;10.542;2022-10-30T09:06:10;16.80;81.52
64961;SHT31;51487;52.266;10.542;2022-10-30T09:08:36;16.85;81.68
64961;SHT31;51487;52.266;10.542;2022-10-30T09:11:02;16.90;81.56
64961;SHT31;51487;52.266;10.542;2022-10-30T09:13:28;16.90;81.99
64961;SHT31;51487;52.266;10.542;2022-10-30T09:15:59;16.95;81.44
64961;SHT31;51487;52.266;10.542;2022-10-30T09:18:26;17.00;81.48
64961;SHT31;51487;52.266;10.542;2022-10-30T09:20:51;17.11;81.40
64961;SHT31;51487;52.266;10.542;2022-10-30T09:23:17;17.24;81.27
64961;SHT31;51487;52.266;10.542;2022-10-30T09:25:42;17.35;80.79
64961;SHT31;51487;52.266;10.542;2022-10-30T09:28:08;17.40;80.63
64961;SHT31;51487;52.266;10.542;2022-10-30T09:30:33;17.43;80.52
64961;SHT31;51487;52.266;10.542;2022-10-30T09:33:00;17.45;81.10
64961;SHT31;51487;52.266;10.542;2022-10-30T09:35:27;17.50;80.45
64961;SHT31;51487;52.266;10.542;2022-10-30T09:37:54;17.55;80.41
64961;SHT31;51487;52.266;10.542;2022-10-30T09:40:37;17.59;80.74
64961;SHT31;51487;52.266;10.542;2022-10-30T09:43:27;17.61;80.73
64961;SHT31;51487;52.266;10.542;2022-10-30T10:00:20;18.57;75.76
64961;SHT31;51487;52.266;10.542;2022-10-30T10:05:55;18.68;75.62
64961;SHT31;51487;52.266;10.542;2022-10-30T10:08:32;18.82;73.21
64961;SHT31;51487;52.266;10.542;2022-10-30T10:11:09;18.92;72.43
64961;SHT31;51487;52.266;10.542;2022-10-30T10:13:52;19.09;72.12
64961;SHT31;51487;52.266;10.542;2022-10-30T10:16:29;19.23;71.68
64961;SHT31;51487;52.266;10.542;2022-10-30T10:19:20;19.13;72.04
64961;SHT31;51487;52.266;10.542;2022-10-30T10:22:02;19.20;72.65
64961;SHT31;51487;52.266;10.542;2022-10-30T10:24:33;19.23;71.54
64961;SHT31;51487;52.266;10.542;2022-10-30T10:30:07;19.20;71.85
64961;SHT31;51487;52.266;10.542;2022-10-30T10:35:58;19.12;72.03
64961;SHT31;51487;52.266;10.542;2022-10-30T10:39:26;19.19;72.20
64961;SHT31;51487;52.266;10.542;2022-10-30T10:45:11;19.30;71.96
64961;SHT31;51487;52.266;10.542;2022-10-30T10:50:58;19.33;72.20
64961;SHT31;51487;52.266;10.542;2022-10-30T10:53:41;19.37;71.74
64961;SHT31;51487;52.266;10.542;2022-10-30T10:56:09;19.49;70.61
64961;SHT31;51487;52.266;10.542;2022-10-30T10:58:50;19.57;70.75
64961;SHT31;51487;52.266;10.542;2022-10-30T11:01:42;19.64;70.46
64961;SHT31;51487;52.266;10.542;2022-10-30T11:04:19;19.65;69.77
64961;SHT31;51487;52.266;10.542;2022-10-30T11:06:51;19.63;70.05
64961;SHT31;51487;52.266;10.542;2022-10-30T11:09:21;19.63;69.67
64961;SHT31;51487;52.266;10.542;2022-10-30T11:11:50;19.61;69.62
64961;SHT31;51487;52.266;10.542;2022-10-30T11:14:22;19.77;69.26
64961;SHT31;51487;52.266;10.542;2022-10-30T11:19:41;19.86;69.10
64961;SHT31;51487;52.266;10.542;2022-10-30T11:22:36;19.98;68.15
64961;SHT31;51487;52.266;10.542;2022-10-30T11:27:57;20.34;67.01
64961;SHT31;51487;52.266;10.542;2022-10-30T11:30:26;20.33;67.00
64961;SHT31;51487;52.266;10.542;2022-10-30T11:32:57;20.39;67.26
64961;SHT31;51487;52.266;10.542;2022-10-30T11:35:25;20.37;66.60
64961;SHT31;51487;52.266;10.542;2022-10-30T11:38:11;20.30;66.77
64961;SHT31;51487;52.266;10.542;2022-10-30T11:40:47;20.46;65.05
64961;SHT31;51487;52.266;10.542;2022-10-30T11:43:21;20.52;64.81
64961;SHT31;51487;52.266;10.542;2022-10-30T11:45:49;20.54;64.87
64961;SHT31;51487;52.266;10.542;2022-10-30T11:48:35;20.54;65.27
64961;SHT31;51487;52.266;10.542;2022-10-30T11:51:03;20.60;64.99
64961;SHT31;51487;52.266;10.542;2022-10-30T11:53:33;20.56;64.95
64961;SHT31;51487;52.266;10.542;2022-10-30T11:56:18;20.60;65.17
64961;SHT31;51487;52.266;10.542;2022-10-30T11:58:52;20.46;65.33
64961;SHT31;51487;52.266;10.542;2022-10-30T12:01:28;20.44;65.74
64961;SHT31;51487;52.266;10.542;2022-10-30T12:03:55;20.28;66.37
64961;SHT31;51487;52.266;10.542;2022-10-30T12:09:16;20.19;66.04
64961;SHT31;51487;52.266;10.542;2022-10-30T12:11:44;20.29;66.11
64961;SHT31;51487;52.266;10.542;2022-10-30T12:14:21;20.23;66.79
64961;SHT31;51487;52.266;10.542;2022-10-30T12:16:50;20.18;66.88
64961;SHT31;51487;52.266;10.542;2022-10-30T12:19:20;20.05;66.99
64961;SHT31;51487;52.266;10.542;2022-10-30T12:21:53;20.18;66.25
64961;SHT31;51487;52.266;10.542;2022-10-30T12:24:31;20.30;65.36
64961;SHT31;51487;52.266;10.542;2022-10-30T12:27:16;20.37;64.88
64961;SHT31;51487;52.266;10.542;2022-10-30T12:33:05;20.44;65.01
64961;SHT31;51487;52.266;10.542;2022-10-30T12:35:49;20.46;65.22
64961;SHT31;51487;52.266;10.542;2022-10-30T12:38:33;20.43;65.34
64961;SHT31;51487;52.266;10.542;2022-10-30T12:41:41;20.46;64.01
64961;SHT31;51487;52.266;10.542;2022-10-30T12:44:18;20.57;63.16
64961;SHT31;51487;52.266;10.542;2022-10-30T12:47:16;20.46;63.82
64961;SHT31;51487;52.266;10.542;2022-10-30T12:52:46;20.49;63.78
64961;SHT31;51487;52.266;10.542;2022-10-30T12:55:46;20.52;64.30
64961;SHT31;51487;52.266;10.542;2022-10-30T12:58:33;20.50;64.38
64961;SHT31;51487;52.266;10.542;2022-10-30T13:01:16;20.60;63.42
64961;SHT31;51487;52.266;10.542;2022-10-30T13:03:56;20.64;63.76
64961;SHT31;51487;52.266;10.542;2022-10-30T13:06:33;20.57;64.19
64961;SHT31;51487;52.266;10.542;2022-10-30T13:09:11;20.50;64.59
64961;SHT31;51487;52.266;10.542;2022-10-30T13:12:13;20.43;64.82
64961;SHT31;51487;52.266;10.542;2022-10-30T13:14:55;20.30;65.75
64961;SHT31;51487;52.266;10.542;2022-10-30T13:17:23;20.34;65.42
64961;SHT31;51487;52.266;10.542;2022-10-30T13:19:48;20.49;65.43
64961;SHT31;51487;52.266;10.542;2022-10-30T13:22:36;20.39;66.13
64961;SHT31;51487;52.266;10.542;2022-10-30T13:25:28;20.42;65.80
64961;SHT31;51487;52.266;10.542;2022-10-30T13:28:24;20.46;65.46
64961;SHT31;51487;52.266;10.542;2022-10-30T13:31:33;20.40;65.84
64961;SHT31;51487;52.266;10.542;2022-10-30T13:34:29;20.42;65.66
64961;SHT31;51487;52.266;10.542;2022-10-30T13:37:13;20.32;66.76
64961;SHT31;51487;52.266;10.542;2022-10-30T13:40:18;20.23;67.21
64961;SHT31;51487;52.266;10.542;2022-10-30T13:43:11;20.19;67.41
64961;SHT31;51487;52.266;10.542;2022-10-30T13:54:07;20.15;68.02
64961;SHT31;51487;52.266;10.542;2022-10-30T13:56:35;20.18;68.29
64961;SHT31;51487;52.266;10.542;2022-10-30T14:08:56;20.13;68.77
64961;SHT31;51487;52.266;10.542;2022-10-30T14:11:25;20.13;69.05
64961;SHT31;51487;52.266;10.542;2022-10-30T14:13:54;20.12;69.02
64961;SHT31;51487;52.266;10.542;2022-10-30T14:17:22;20.09;69.05
64961;SHT31;51487;52.266;10.542;2022-10-30T14:22:33;20.16;68.78
64961;SHT31;51487;52.266;10.542;2022-10-30T14:25:00;20.32;68.57
64961;SHT31;51487;52.266;10.542;2022-10-30T14:27:31;20.26;69.07
64961;SHT31;51487;52.266;10.542;2022-10-30T14:29:59;20.29;68.93
64961;SHT31;51487;52.266;10.542;2022-10-30T14:43:26;19.82;70.96
64961;SHT31;51487;52.266;10.542;2022-10-30T14:46:00;19.73;71.28
64961;SHT31;51487;52.266;10.542;2022-10-30T14:48:58;19.65;71.37
64961;SHT31;51487;52.266;10.542;2022-10-30T14:51:39;19.63;71.64
64961;SHT31;51487;52.266;10.542;2022-10-30T14:54:27;19.51;72.21
64961;SHT31;51487;52.266;10.542;2022-10-30T14:56:55;19.47;71.82
64961;SHT31;51487;52.266;10.542;2022-10-30T14:59:29;19.43;72.00
64961;SHT31;51487;52.266;10.542;2022-10-30T15:02:22;19.40;71.89
64961;SHT31;51487;52.266;10.542;2022-10-30T15:13:25;18.89;75.59
64961;SHT31;51487;52.266;10.542;2022-10-30T15:16:04;18.76;75.62
64961;SHT31;51487;52.266;10.542;2022-10-30T15:18:31;18.68;77.00
64961;SHT31;51487;52.266;10.542;2022-10-30T15:21:04;18.58;77.72
64961;SHT31;51487;52.266;10.542;2022-10-30T15:23:34;18.52;77.58
64961;SHT31;51487;52.266;10.542;2022-10-30T15:26:04;18.51;78.39
64961;SHT31;51487;52.266;10.542;2022-10-30T15:28:35;18.48;78.80
64961;SHT31;51487;52.266;10.542;2022-10-30T15:31:19;18.31;79.48
64961;SHT31;51487;52.266;10.542;2022-10-30T15:33:45;18.18;80.04
64961;SHT31;51487;52.266;10.542;2022-10-30T15:36:22;18.06;80.14
64961;SHT31;51487;52.266;10.542;2022-10-30T15:39:12;17.90;80.32
64961;SHT31;51487;52.266;10.542;2022-10-30T15:44:21;17.70;80.97
64961;SHT31;51487;52.266;10.542;2022-10-30T15:46:53;17.58;81.14
64961;SHT31;51487;52.266;10.542;2022-10-30T15:49:32;17.49;81.51
64961;SHT31;51487;52.266;10.542;2022-10-30T15:52:00;17.42;81.94
64961;SHT31;51487;52.266;10.542;2022-10-30T15:54:29;17.38;82.59
64961;SHT31;51487;52.266;10.542;2022-10-30T15:56:58;17.32;83.32
64961;SHT31;51487;52.266;10.542;2022-10-30T15:59:29;17.25;83.19
64961;SHT31;51487;52.266;10.542;2022-10-30T16:01:57;17.22;83.17
64961;SHT31;51487;52.266;10.542;2022-10-30T16:04:29;17.19;83.41
64961;SHT31;51487;52.266;10.542;2022-10-30T16:07:00;17.12;83.94
64961;SHT31;51487;52.266;10.542;2022-10-30T16:09:27;17.00;84.23
64961;SHT31;51487;52.266;10.542;2022-10-30T16:11:57;16.91;84.64
64961;SHT31;51487;52.266;10.542;2022-10-30T16:14:27;16.87;84.77
64961;SHT31;51487;52.266;10.542;2022-10-30T16:16:58;16.83;84.74
64961;SHT31;51487;52.266;10.542;2022-10-30T16:19:39;16.84;84.53
64961;SHT31;51487;52.266;10.542;2022-10-30T16:22:15;16.81;84.88
64961;SHT31;51487;52.266;10.542;2022-10-30T16:24:42;16.76;85.04
64961;SHT31;51487;52.266;10.542;2022-10-30T16:27:21;16.70;85.15
64961;SHT31;51487;52.266;10.542;2022-10-30T16:29:55;16.67;85.37
64961;SHT31;51487;52.266;10.542;2022-10-30T16:32:25;16.64;85.57
64961;SHT31;51487;52.266;10.542;2022-10-30T16:34:57;16.64;85.23
64961;SHT31;51487;52.266;10.542;2022-10-30T16:39:58;16.61;85.56
64961;SHT31;51487;52.266;10.542;2022-10-30T16:42:26;16.59;85.67
64961;SHT31;51487;52.266;10.542;2022-10-30T16:47:49;16.56;85.95
64961;SHT31;51487;52.266;10.542;2022-10-30T16:50:16;16.53;86.10
64961;SHT31;51487;52.266;10.542;2022-10-30T16:52:44;16.55;85.97
64961;SHT31;51487;52.266;10.542;2022-10-30T16:55:22;16.55;86.24
64961;SHT31;51487;52.266;10.542;2022-10-30T16:57:54;16.53;86.21
64961;SHT31;51487;52.266;10.542;2022-10-30T17:00:27;16.49;86.45
64961;SHT31;51487;52.266;10.542;2022-10-30T17:02:56;16.48;86.67
64961;SHT31;51487;52.266;10.542;2022-10-30T17:05:25;16.42;86.98
64961;SHT31;51487;52.266;10.542;2022-10-30T17:08:28;16.36;86.78
64961;SHT31;51487;52.266;10.542;2022-10-30T17:11:06;16.39;86.78
64961;SHT31;51487;52.266;10.542;2022-10-30T17:13:57;16.38;86.95
64961;SHT31;51487;52.266;10.542;2022-10-30T17:16:28;16.33;87.02
64961;SHT31;51487;52.266;10.542;2022-10-30T17:18:57;16.34;87.15
64961;SHT31;51487;52.266;10.542;2022-10-30T17:23:55;16.30;87.63
64961;SHT31;51487;52.266;10.542;2022-10-30T17:26:21;16.30;87.43
64961;SHT31;51487;52.266;10.542;2022-10-30T17:28:47;16.28;87.77
64961;SHT31;51487;52.266;10.542;2022-10-30T17:31:46;16.21;87.82
64961;SHT31;51487;52.266;10.542;2022-10-30T17:34:19;16.22;87.72
64961;SHT31;51487;52.266;10.542;2022-10-30T17:36:47;16.22;87.86
64961;SHT31;51487;52.266;10.542;2022-10-30T17:39:14;16.22;87.74
64961;SHT31;51487;52.266;10.542;2022-10-30T17:41:41;16.21;87.96
64961;SHT31;51487;52.266;10.542;2022-10-30T17:44:23;16.19;87.75